Rutledge, Iowa
Current Conditions -  °F | °C
As of 12:53 PM on Saturday 25 Oct 2014 (Local Time) from KOTM Reporting Station
Clear Clear  
Wind Chill: 71°   Ceiling: Unl
Heat Index: 71°   Visibility: 10mi
Dew Point: 44°   Wind: 6mph
Humidity: 38%   Direction: 360°N
Pressure: 30.07"   Gusts: NA
Location:  41.0803°N, 92.3054°W
Report Text: KOTM 251753Z AUTO 36005KT 10SM CLR 22/07 A3007 RMK AO2 SLP179 T02170067 10217 20083 58001
Loading
Personal Weather Stations






























Interactive Weather Map
Tropical Storm Tracking
New forecast layout! Learn more

10-Day Weather Forecast

Advertisements
Track Severe Weather on mobile